createdAt,value
2023-04-27T00:00:35.176Z,48.09
2023-04-27T00:01:35.150Z,57.26
2023-04-27T00:02:35.249Z,53.89
2023-04-27T00:03:35.240Z,54.16
2023-04-27T00:04:35.231Z,46.00
2023-04-27T00:05:35.188Z,51.28
2023-04-27T00:06:35.127Z,54.60
2023-04-27T00:07:35.096Z,44.65
2023-04-27T00:08:35.096Z,60.51
2023-04-27T00:09:35.101Z,50.34
2023-04-27T00:10:35.647Z,54.56
2023-04-27T00:11:35.066Z,51.04
2023-04-27T00:12:35.053Z,57.02
2023-04-27T00:13:35.046Z,44.09
2023-04-27T00:14:35.038Z,50.69
2023-04-27T00:15:35.037Z,46.20
2023-04-27T00:16:35.115Z,56.97
2023-04-27T00:17:36.059Z,50.02
2023-04-27T00:18:35.007Z,52.00
2023-04-27T00:19:35.008Z,47.63
2023-04-27T00:20:34.984Z,44.30
2023-04-27T00:23:35.108Z,62.58
2023-04-27T00:24:35.103Z,41.96
2023-04-27T00:25:35.102Z,40.77
2023-04-27T00:26:35.088Z,46.48
2023-04-27T00:27:36.196Z,43.32
2023-04-27T00:28:36.179Z,49.62
2023-04-27T00:29:36.155Z,51.32
2023-04-27T00:30:36.217Z,44.34
2023-04-27T00:31:36.191Z,50.44
2023-04-27T00:32:36.161Z,46.14
2023-04-27T00:33:36.126Z,49.99
2023-04-27T00:34:36.111Z,41.94
2023-04-27T00:35:36.926Z,54.21
2023-04-27T00:36:36.104Z,58.71
2023-04-27T00:37:36.095Z,51.50
2023-04-27T00:38:36.082Z,49.96
2023-04-27T00:39:36.763Z,50.57
2023-04-27T00:40:36.090Z,47.53
2023-04-27T00:41:36.049Z,45.91
2023-04-27T00:42:36.059Z,45.09
2023-04-27T00:43:36.032Z,47.72
2023-04-27T00:44:36.106Z,64.50
2023-04-27T00:45:36.032Z,56.46
2023-04-27T00:46:36.019Z,44.93
2023-04-27T00:47:36.065Z,46.18
2023-04-27T00:48:35.996Z,55.35
2023-04-27T00:49:35.992Z,52.93
2023-04-27T00:50:35.986Z,41.83
2023-04-27T00:51:35.967Z,50.56
2023-04-27T00:52:35.977Z,52.77
2023-04-27T00:53:35.960Z,44.46
2023-04-27T00:54:35.952Z,54.55
2023-04-27T00:55:35.940Z,53.24
2023-04-27T00:56:36.861Z,42.83
2023-04-27T00:57:35.927Z,57.07
2023-04-27T00:58:36.767Z,53.11
2023-04-27T00:59:35.909Z,47.38
2023-04-27T01:00:35.906Z,53.49
2023-04-27T01:01:35.973Z,54.98
2023-04-27T01:02:36.058Z,42.04
2023-04-27T01:03:36.038Z,56.76
2023-04-27T01:04:36.002Z,49.63
2023-04-27T01:05:35.876Z,58.43
2023-04-27T01:06:35.851Z,53.02
2023-04-27T01:07:35.850Z,42.75
2023-04-27T01:08:35.843Z,41.35
2023-04-27T01:09:35.847Z,49.43
2023-04-27T01:10:35.834Z,46.11
2023-04-27T01:11:35.817Z,53.90
2023-04-27T01:12:35.807Z,40.60
2023-04-27T01:13:35.799Z,48.86
2023-04-27T01:14:35.794Z,58.07
2023-04-27T01:15:35.802Z,47.89
2023-04-27T01:16:35.831Z,44.37
2023-04-27T01:17:35.868Z,49.76
2023-04-27T01:18:35.781Z,60.75
2023-04-27T01:19:35.753Z,54.33
2023-04-27T01:20:35.784Z,45.14
2023-04-27T01:21:35.750Z,58.98
2023-04-27T01:22:35.733Z,54.14
2023-04-27T01:23:35.740Z,59.55
2023-04-27T01:24:35.718Z,43.38
2023-04-27T01:25:35.701Z,46.77
2023-04-27T01:26:35.695Z,55.84
2023-04-27T01:27:35.685Z,55.23
2023-04-27T01:28:35.682Z,56.55
2023-04-27T01:29:35.678Z,61.89
2023-04-27T01:30:35.662Z,55.22
2023-04-27T01:31:35.753Z,53.19
2023-04-27T01:32:35.683Z,45.74
2023-04-27T01:33:35.646Z,56.85
2023-04-27T01:34:35.642Z,51.64
2023-04-27T01:35:35.621Z,42.72
2023-04-27T01:36:35.619Z,56.04
2023-04-27T01:37:35.699Z,53.40
2023-04-27T01:38:35.593Z,58.30
2023-04-27T01:39:35.600Z,56.98
2023-04-27T01:40:35.584Z,54.35
2023-04-27T01:41:35.585Z,52.09
2023-04-27T01:42:35.591Z,57.65
2023-04-27T01:43:35.560Z,49.72
2023-04-27T01:44:35.559Z,42.85
2023-04-27T01:45:35.543Z,43.17
2023-04-27T01:46:36.406Z,61.55
2023-04-27T01:47:35.613Z,49.14
2023-04-27T01:48:35.520Z,43.06
2023-04-27T01:49:35.528Z,50.85
2023-04-27T01:50:35.515Z,55.67
2023-04-27T01:51:35.510Z,46.38
2023-04-27T01:52:35.495Z,44.17
2023-04-27T01:53:35.494Z,51.17
2023-04-27T01:54:35.480Z,51.06
2023-04-27T01:55:35.468Z,49.55
2023-04-27T01:56:35.458Z,46.93
2023-04-27T01:57:35.504Z,59.69
2023-04-27T01:58:35.455Z,57.32
2023-04-27T01:59:35.437Z,58.80
2023-04-27T02:00:36.432Z,54.64
2023-04-27T02:01:35.507Z,54.07
2023-04-27T02:02:35.517Z,45.74
2023-04-27T02:03:35.505Z,51.23
2023-04-27T02:04:35.491Z,44.89
2023-04-27T02:05:35.407Z,44.49
2023-04-27T02:06:35.388Z,51.14
2023-04-27T02:07:35.377Z,47.16
2023-04-27T02:08:35.414Z,51.11
2023-04-27T02:09:35.372Z,51.71
2023-04-27T02:10:35.377Z,44.92
2023-04-27T02:11:35.372Z,58.40
2023-04-27T02:12:35.339Z,55.87
2023-04-27T02:13:35.325Z,52.22
2023-04-27T02:14:35.337Z,50.11
2023-04-27T02:15:35.320Z,51.40
2023-04-27T02:16:35.435Z,56.51
2023-04-27T02:17:35.395Z,61.84
2023-04-27T02:18:35.312Z,46.71
2023-04-27T02:19:35.303Z,49.23
2023-04-27T02:20:35.280Z,44.15
2023-04-27T02:21:35.288Z,52.84
2023-04-27T02:22:35.277Z,50.07
2023-04-27T02:23:35.263Z,59.39
2023-04-27T02:24:35.243Z,52.94
2023-04-27T02:25:35.234Z,51.16
2023-04-27T02:26:35.277Z,54.02
2023-04-27T02:27:35.222Z,56.87
2023-04-27T02:28:35.227Z,49.63
2023-04-27T02:29:35.206Z,54.26
2023-04-27T02:30:35.204Z,53.35
2023-04-27T02:31:35.254Z,53.85
2023-04-27T02:32:35.188Z,58.31
2023-04-27T02:33:35.183Z,47.25
2023-04-27T02:34:35.171Z,48.70
2023-04-27T02:35:35.159Z,62.34
2023-04-27T02:36:35.186Z,55.19
2023-04-27T02:37:35.165Z,49.85
2023-04-27T02:38:35.153Z,51.78
2023-04-27T02:39:35.133Z,55.21
2023-04-27T02:40:35.272Z,55.98
2023-04-27T02:41:35.116Z,59.05
2023-04-27T02:42:35.119Z,58.15
2023-04-27T02:43:35.106Z,54.44
2023-04-27T02:44:35.094Z,60.51
2023-04-27T02:45:35.082Z,57.36
2023-04-27T02:46:35.110Z,60.52
2023-04-27T02:47:35.106Z,59.80
2023-04-27T02:48:35.055Z,61.65
2023-04-27T02:49:36.709Z,64.27
2023-04-27T02:50:35.035Z,64.37
2023-04-27T02:51:35.050Z,68.54
2023-04-27T02:52:35.055Z,69.05
2023-04-27T02:53:35.010Z,66.48
2023-04-27T02:54:35.003Z,61.22
2023-04-27T02:55:34.996Z,55.28
2023-04-27T02:56:34.992Z,59.89
2023-04-27T02:57:34.994Z,53.39
2023-04-27T02:58:34.987Z,56.43
2023-04-27T02:59:34.987Z,58.87
2023-04-27T03:00:34.968Z,57.00
2023-04-27T03:01:34.996Z,54.96
2023-04-27T03:02:35.140Z,52.11
2023-04-27T03:03:35.125Z,59.33
2023-04-27T03:04:34.966Z,55.71
2023-04-27T03:05:34.924Z,58.39
2023-04-27T03:06:35.785Z,57.26
2023-04-27T03:07:34.914Z,63.18
2023-04-27T03:08:34.914Z,54.49
2023-04-27T03:09:34.942Z,61.05
2023-04-27T03:10:34.890Z,61.52
2023-04-27T03:11:37.204Z,63.04
2023-04-27T03:12:34.880Z,60.89
2023-04-27T03:13:34.872Z,61.56
2023-04-27T03:14:34.868Z,59.10
2023-04-27T03:15:34.852Z,59.06
2023-04-27T03:16:34.905Z,59.63
2023-04-27T03:17:34.852Z,62.17
2023-04-27T03:18:34.850Z,64.23
2023-04-27T03:19:34.824Z,62.12
2023-04-27T03:20:34.817Z,61.72
2023-04-27T03:21:34.844Z,64.35
2023-04-27T03:22:34.803Z,62.03
2023-04-27T03:23:34.808Z,60.60
2023-04-27T03:24:34.778Z,63.58
2023-04-27T03:25:34.779Z,60.93
2023-04-27T03:26:34.763Z,58.06
2023-04-27T03:27:34.760Z,58.83
2023-04-27T03:28:34.756Z,60.01
2023-04-27T03:29:34.746Z,60.84
2023-04-27T03:30:34.738Z,63.36
2023-04-27T03:31:34.761Z,59.29
2023-04-27T03:32:34.752Z,57.05
2023-04-27T03:33:34.715Z,56.91
2023-04-27T03:34:34.715Z,59.36
2023-04-27T03:35:34.696Z,59.73
2023-04-27T03:36:34.703Z,62.65
2023-04-27T03:37:34.690Z,58.96
2023-04-27T03:38:34.686Z,62.29
2023-04-27T03:39:34.673Z,66.52
2023-04-27T03:40:34.662Z,64.51
2023-04-27T03:41:34.664Z,57.72
2023-04-27T03:42:34.640Z,63.75
2023-04-27T03:43:34.641Z,62.91
2023-04-27T03:44:34.653Z,63.56
2023-04-27T03:45:34.624Z,64.83
2023-04-27T03:46:34.905Z,61.58
2023-04-27T03:47:34.682Z,63.95
2023-04-27T03:48:34.604Z,62.19
2023-04-27T03:49:34.590Z,63.16
2023-04-27T03:50:34.613Z,63.21
2023-04-27T03:51:34.593Z,63.38
2023-04-27T03:52:34.580Z,63.85
2023-04-27T03:53:34.571Z,62.47
2023-04-27T03:54:34.598Z,63.34
2023-04-27T03:55:34.538Z,62.98
2023-04-27T03:56:34.548Z,62.59
2023-04-27T03:57:34.540Z,62.32
2023-04-27T03:58:34.543Z,64.01
2023-04-27T03:59:34.518Z,65.51
2023-04-27T04:00:34.518Z,63.39
2023-04-27T04:01:34.500Z,65.57
2023-04-27T04:02:34.546Z,61.15
2023-04-27T04:03:34.569Z,64.78
2023-04-27T04:04:34.635Z,68.31
2023-04-27T04:05:34.471Z,67.35
2023-04-27T04:06:34.465Z,62.60
2023-04-27T04:07:34.455Z,63.66
2023-04-27T04:08:34.467Z,59.52
2023-04-27T04:09:34.504Z,60.11
2023-04-27T04:10:34.442Z,60.38
2023-04-27T04:11:34.429Z,60.93
2023-04-27T04:12:34.429Z,62.79
2023-04-27T04:13:34.412Z,64.23
2023-04-27T04:14:34.417Z,61.13
2023-04-27T04:15:34.471Z,61.73
2023-04-27T04:16:34.390Z,59.95
2023-04-27T04:17:34.439Z,67.04
2023-04-27T04:18:34.383Z,63.67
2023-04-27T04:19:35.334Z,63.36
2023-04-27T04:20:35.322Z,58.18
2023-04-27T04:21:34.357Z,62.98
2023-04-27T04:22:34.373Z,59.82
2023-04-27T04:23:34.358Z,62.04
2023-04-27T04:24:34.346Z,63.38
2023-04-27T04:25:34.342Z,62.18
2023-04-27T04:26:34.334Z,65.72
2023-04-27T04:27:34.320Z,65.91
2023-04-27T04:28:34.316Z,64.23
2023-04-27T04:29:34.305Z,64.65
2023-04-27T04:30:34.297Z,66.24
2023-04-27T04:31:34.321Z,64.16
2023-04-27T04:32:34.284Z,65.77
2023-04-27T04:33:34.260Z,65.07
2023-04-27T04:34:34.256Z,62.37
2023-04-27T04:35:34.297Z,66.10
2023-04-27T04:36:34.238Z,65.86
2023-04-27T04:37:34.232Z,65.94
2023-04-27T04:38:34.219Z,68.06
2023-04-27T04:39:34.222Z,63.98
2023-04-27T04:40:34.242Z,64.27
2023-04-27T04:41:34.809Z,63.20
2023-04-27T04:42:49.971Z,65.12
2023-04-27T04:43:34.186Z,64.93
2023-04-27T04:44:35.162Z,67.24
2023-04-27T04:45:34.194Z,64.36
2023-04-27T04:46:34.199Z,63.33
2023-04-27T04:47:34.198Z,62.92
2023-04-27T04:48:34.180Z,66.02
2023-04-27T04:49:34.142Z,67.38
2023-04-27T04:50:34.889Z,63.17
2023-04-27T04:51:34.124Z,63.68
2023-04-27T04:52:35.893Z,64.52
2023-04-27T04:53:34.113Z,66.53
2023-04-27T04:54:34.108Z,65.16
2023-04-27T04:55:35.100Z,66.16
2023-04-27T04:56:34.071Z,68.93
2023-04-27T04:57:34.102Z,64.40
2023-04-27T04:58:34.070Z,64.44
2023-04-27T04:59:34.079Z,65.62
2023-04-27T05:00:34.063Z,67.18
2023-04-27T05:01:34.100Z,64.22
2023-04-27T05:02:34.985Z,64.35
2023-04-27T05:03:34.220Z,65.43
2023-04-27T05:04:34.142Z,66.94
2023-04-27T05:05:34.438Z,66.88
2023-04-27T05:06:35.898Z,67.21
2023-04-27T05:07:34.032Z,63.87
2023-04-27T05:08:34.013Z,64.59
2023-04-27T05:09:34.880Z,64.74
2023-04-27T05:10:33.991Z,64.68
2023-04-27T05:11:33.980Z,64.38
2023-04-27T05:12:33.958Z,66.71
2023-04-27T05:15:43.244Z,72.17
2023-04-27T05:16:44.300Z,70.43
2023-04-27T05:17:43.244Z,65.72
2023-04-27T05:18:42.430Z,72.87
2023-04-27T05:19:42.415Z,67.73
2023-04-27T05:20:42.409Z,64.63
2023-04-27T05:21:42.393Z,68.39
2023-04-27T05:22:42.407Z,68.07
2023-04-27T05:23:42.420Z,71.22
2023-04-27T05:24:42.393Z,72.79
2023-04-27T05:25:42.437Z,73.43
2023-04-27T05:26:42.374Z,66.71
2023-04-27T05:27:43.151Z,66.43
2023-04-27T05:28:42.341Z,67.87
2023-04-27T05:29:42.376Z,66.45
2023-04-27T05:30:42.344Z,67.07
2023-04-27T05:31:42.316Z,67.82
2023-04-27T05:32:42.368Z,68.93
2023-04-27T05:33:42.296Z,68.06
2023-04-27T05:34:42.303Z,68.94
2023-04-27T05:35:42.336Z,65.78
2023-04-27T05:36:42.279Z,68.13
2023-04-27T05:37:43.275Z,66.72
2023-04-27T05:38:42.260Z,68.70
2023-04-27T05:39:42.308Z,69.47
2023-04-27T05:40:42.258Z,66.55
2023-04-27T05:41:42.423Z,65.19
2023-04-27T05:42:42.224Z,71.69
2023-04-27T05:43:42.232Z,67.61
2023-04-27T05:44:42.250Z,65.14
2023-04-27T05:45:42.243Z,65.65
2023-04-27T05:46:42.208Z,65.58
2023-04-27T05:47:42.246Z,65.85
2023-04-27T05:48:42.179Z,65.41
2023-04-27T05:49:42.200Z,65.10
2023-04-27T05:50:42.194Z,65.29
2023-04-27T05:51:42.662Z,66.42
2023-04-27T05:52:42.192Z,66.88
2023-04-27T05:53:42.180Z,65.24
2023-04-27T05:54:43.732Z,67.50
2023-04-27T05:55:42.155Z,67.32
2023-04-27T05:56:42.186Z,67.63
2023-04-27T05:57:42.165Z,67.92
2023-04-27T05:58:42.170Z,65.09
2023-04-27T05:59:42.090Z,63.18
2023-04-27T06:00:42.098Z,68.16
2023-04-27T06:01:42.160Z,66.67
2023-04-27T06:02:42.217Z,68.71
2023-04-27T06:03:42.213Z,66.80
2023-04-27T06:04:42.086Z,65.52
2023-04-27T06:05:42.104Z,66.87
2023-04-27T06:06:42.058Z,65.08
2023-04-27T06:07:42.791Z,66.07
2023-04-27T06:08:43.748Z,66.70
2023-04-27T06:09:42.014Z,65.99
2023-04-27T06:10:42.020Z,67.31
2023-04-27T06:11:42.685Z,65.57
2023-04-27T06:12:42.753Z,62.62
2023-04-27T06:13:42.011Z,63.37
2023-04-27T06:14:42.037Z,65.61
2023-04-27T06:15:42.109Z,67.00
2023-04-27T06:16:41.962Z,65.24
2023-04-27T06:17:41.998Z,65.27
2023-04-27T06:18:41.965Z,65.11
2023-04-27T06:19:41.984Z,64.54
2023-04-27T06:20:45.003Z,67.87
2023-04-27T06:21:41.932Z,65.81
2023-04-27T06:22:43.669Z,63.08
2023-04-27T06:23:42.140Z,62.94
2023-04-27T06:24:42.902Z,64.89
2023-04-27T06:25:43.675Z,64.35
2023-04-27T06:26:43.710Z,64.82
2023-04-27T06:27:41.908Z,63.85
2023-04-27T06:28:41.872Z,65.76
2023-04-27T06:29:41.882Z,66.55
2023-04-27T06:30:41.874Z,65.57
2023-04-27T06:31:42.747Z,65.71
2023-04-27T06:32:42.849Z,66.93
2023-04-27T06:33:41.859Z,63.31
2023-04-27T06:34:41.842Z,63.13
2023-04-27T06:35:42.701Z,64.50
2023-04-27T06:36:41.802Z,64.51
2023-04-27T06:37:41.813Z,68.06
2023-04-27T06:38:41.814Z,64.70
2023-04-27T06:39:41.814Z,67.63
2023-04-27T06:40:41.794Z,66.69
2023-04-27T06:41:41.823Z,65.31
2023-04-27T06:42:41.793Z,67.71
2023-04-27T06:43:41.789Z,64.91
2023-04-27T06:44:41.754Z,65.35
2023-04-27T06:45:41.801Z,65.68
2023-04-27T06:46:41.806Z,65.20
2023-04-27T06:47:41.797Z,65.04
2023-04-27T06:48:41.718Z,64.44
2023-04-27T06:49:41.728Z,64.04
2023-04-27T06:50:42.003Z,65.66
2023-04-27T06:51:41.703Z,66.72
2023-04-27T06:52:41.699Z,67.75
2023-04-27T06:53:43.179Z,64.68
2023-04-27T06:54:41.675Z,65.03
2023-04-27T06:55:43.861Z,67.84
2023-04-27T06:56:42.661Z,71.84
2023-04-27T06:57:41.646Z,68.78
2023-04-27T06:58:41.637Z,66.03
2023-04-27T06:59:41.637Z,67.39
2023-04-27T07:00:41.619Z,66.64
2023-04-27T07:01:41.745Z,65.18
2023-04-27T07:02:41.680Z,64.57
2023-04-27T07:03:41.888Z,64.18
2023-04-27T07:04:43.339Z,65.05
2023-04-27T07:05:41.578Z,66.72
2023-04-27T07:06:41.578Z,68.10
2023-04-27T07:07:41.557Z,68.86
2023-04-27T07:08:41.563Z,63.99
2023-04-27T07:09:41.555Z,66.07
2023-04-27T07:10:41.541Z,64.01
2023-04-27T07:11:41.535Z,63.31
2023-04-27T07:12:41.551Z,65.83
2023-04-27T07:13:41.524Z,62.45
2023-04-27T07:14:41.517Z,64.22
2023-04-27T07:15:41.527Z,64.19
2023-04-27T07:16:41.531Z,62.37
2023-04-27T07:17:41.588Z,63.80
2023-04-27T07:18:43.297Z,69.04
2023-04-27T07:19:42.492Z,65.11
2023-04-27T07:20:41.479Z,67.02
2023-04-27T07:21:44.283Z,66.05
2023-04-27T07:22:41.442Z,65.48
2023-04-27T07:23:41.467Z,68.67
2023-04-27T07:24:41.434Z,67.76
2023-04-27T07:25:41.426Z,64.77
2023-04-27T07:26:41.418Z,65.57
2023-04-27T07:27:42.219Z,62.67
2023-04-27T07:28:41.422Z,63.33
2023-04-27T07:29:41.386Z,64.77
2023-04-27T07:30:41.384Z,65.66
2023-04-27T07:31:41.507Z,63.85
2023-04-27T07:32:41.396Z,65.61
2023-04-27T07:33:41.461Z,65.27
2023-04-27T07:34:52.592Z,64.00
2023-04-27T07:35:43.378Z,63.86
2023-04-27T07:36:41.373Z,65.95
2023-04-27T07:37:42.360Z,65.04
2023-04-27T07:38:41.335Z,66.12
2023-04-27T07:39:41.291Z,67.66
2023-04-27T07:40:44.338Z,66.67
2023-04-27T07:41:41.320Z,64.91
2023-04-27T07:42:41.300Z,65.74
2023-04-27T07:43:41.275Z,63.65
2023-04-27T07:44:41.270Z,66.57
2023-04-27T07:45:41.398Z,64.25
2023-04-27T07:46:41.261Z,66.50
2023-04-27T07:47:41.282Z,64.91
2023-04-27T07:48:41.240Z,65.12
2023-04-27T07:49:41.250Z,63.78
2023-04-27T07:50:41.223Z,64.94
2023-04-27T07:51:41.218Z,63.67
2023-04-27T07:52:41.238Z,67.12
2023-04-27T07:53:41.202Z,68.75
2023-04-27T07:54:41.192Z,66.19
2023-04-27T07:55:41.183Z,65.37
2023-04-27T07:56:41.171Z,65.92
2023-04-27T07:57:41.700Z,65.71
2023-04-27T07:58:41.165Z,62.84
2023-04-27T07:59:41.162Z,64.24
2023-04-27T08:00:41.146Z,66.76
2023-04-27T08:01:41.175Z,64.40
2023-04-27T08:02:41.269Z,65.91
2023-04-27T08:03:41.400Z,64.81
2023-04-27T08:04:41.279Z,63.37
2023-04-27T08:05:41.392Z,66.46
2023-04-27T08:06:42.211Z,67.87
2023-04-27T08:07:44.375Z,66.08
2023-04-27T08:08:42.102Z,62.30
2023-04-27T08:09:41.084Z,64.04
2023-04-27T08:10:41.055Z,63.24
2023-04-27T08:11:41.077Z,63.87
2023-04-27T08:12:41.078Z,63.33
2023-04-27T08:13:41.037Z,66.11
2023-04-27T08:14:41.035Z,65.21
2023-04-27T08:15:41.020Z,63.40
2023-04-27T08:16:41.058Z,66.29
2023-04-27T08:17:41.176Z,66.61
2023-04-27T08:18:41.003Z,67.37
2023-04-27T08:19:41.006Z,64.57
2023-04-27T08:20:40.994Z,66.59
2023-04-27T08:21:43.793Z,69.03
2023-04-27T08:22:40.968Z,66.18
2023-04-27T08:23:40.969Z,67.56
2023-04-27T08:26:48.612Z,64.59
2023-04-27T08:27:48.613Z,65.81
2023-04-27T08:28:48.601Z,66.03
2023-04-27T08:29:48.583Z,65.33
2023-04-27T08:30:48.587Z,64.13
2023-04-27T08:31:48.748Z,66.22
2023-04-27T08:32:48.621Z,64.06
2023-04-27T08:33:48.562Z,65.18
2023-04-27T08:34:48.575Z,65.91
2023-04-27T08:35:48.530Z,64.18
2023-04-27T08:36:48.525Z,64.33
2023-04-27T08:37:48.524Z,62.78
2023-04-27T08:38:48.523Z,66.73
2023-04-27T08:39:49.208Z,66.32
2023-04-27T08:40:48.497Z,67.54
2023-04-27T08:41:48.508Z,63.95
2023-04-27T08:42:48.485Z,65.09
2023-04-27T08:43:48.469Z,71.77
2023-04-27T08:44:48.472Z,64.12
2023-04-27T08:45:48.458Z,63.92
2023-04-27T08:46:48.631Z,63.98
2023-04-27T08:47:48.496Z,63.74
2023-04-27T08:48:48.446Z,65.52
2023-04-27T08:49:49.451Z,68.15
2023-04-27T08:50:48.425Z,64.58
2023-04-27T08:51:48.433Z,65.16
2023-04-27T08:52:49.277Z,63.13
2023-04-27T08:53:48.395Z,66.18
2023-04-27T08:54:48.389Z,64.45
2023-04-27T08:55:49.208Z,64.74
2023-04-27T08:56:48.405Z,65.60
2023-04-27T08:57:48.382Z,66.59
2023-04-27T08:58:49.181Z,64.62
2023-04-27T08:59:48.339Z,63.56
2023-04-27T09:00:49.067Z,66.46
2023-04-27T09:01:48.488Z,63.07
2023-04-27T09:02:48.588Z,64.61
2023-04-27T09:03:49.478Z,67.08
2023-04-27T09:04:50.361Z,64.38
2023-04-27T09:06:02.979Z,65.38
2023-04-27T09:06:50.302Z,63.83
2023-04-27T09:07:48.279Z,64.05
2023-04-27T09:08:48.312Z,65.28
2023-04-27T09:09:48.298Z,65.97
2023-04-27T09:10:48.285Z,65.10
2023-04-27T09:11:48.245Z,62.42
2023-04-27T09:12:48.245Z,61.70
2023-04-27T09:13:48.257Z,64.78
2023-04-27T09:14:48.219Z,63.73
2023-04-27T09:15:48.683Z,62.51
2023-04-27T09:16:49.255Z,66.78
2023-04-27T09:17:50.804Z,65.84
2023-04-27T09:18:48.202Z,64.12
2023-04-27T09:19:48.751Z,63.24
2023-04-27T09:20:49.193Z,63.38
2023-04-27T09:21:48.172Z,64.57
2023-04-27T09:22:48.151Z,67.26
2023-04-27T09:23:48.184Z,68.28
2023-04-27T09:24:48.154Z,65.62
2023-04-27T09:25:48.135Z,64.08
2023-04-27T09:26:48.117Z,64.04
2023-04-27T09:27:48.115Z,64.83
2023-04-27T09:28:48.144Z,66.00
2023-04-27T09:29:48.107Z,65.16
2023-04-27T09:30:48.082Z,67.92
2023-04-27T09:31:48.116Z,63.80
2023-04-27T09:32:48.095Z,63.15
2023-04-27T09:33:48.089Z,62.32
2023-04-27T09:34:48.135Z,63.10
2023-04-27T09:35:48.059Z,64.22
2023-04-27T09:36:48.780Z,66.10
2023-04-27T09:37:49.685Z,63.96
2023-04-27T09:38:48.027Z,66.78
2023-04-27T09:39:48.049Z,65.35
2023-04-27T09:40:48.185Z,65.63
2023-04-27T09:41:48.218Z,63.10
2023-04-27T09:42:48.039Z,64.89
2023-04-27T09:43:47.987Z,65.06
2023-04-27T09:44:47.999Z,64.40
2023-04-27T09:45:48.011Z,64.92
2023-04-27T09:46:47.960Z,64.54
2023-04-27T09:47:48.001Z,64.77
2023-04-27T09:48:47.945Z,63.64
2023-04-27T09:49:47.962Z,65.80
2023-04-27T09:50:50.777Z,68.25
2023-04-27T09:51:47.942Z,66.23
2023-04-27T09:52:47.942Z,62.48
2023-04-27T09:53:47.923Z,66.45
2023-04-27T09:54:47.901Z,63.36
2023-04-27T09:55:49.513Z,63.12
2023-04-27T09:56:48.733Z,65.25
2023-04-27T09:57:47.931Z,64.77
2023-04-27T09:58:47.881Z,61.72
2023-04-27T09:59:47.876Z,65.55
2023-04-27T10:00:47.871Z,65.34
2023-04-27T10:01:47.889Z,63.29
2023-04-27T10:02:53.030Z,66.71
2023-04-27T10:03:49.913Z,68.11
2023-04-27T10:04:48.713Z,66.33
2023-04-27T10:05:48.780Z,64.94
2023-04-27T10:06:47.851Z,65.36
2023-04-27T10:07:47.805Z,64.44
2023-04-27T10:08:47.796Z,65.54
2023-04-27T10:09:47.796Z,64.38
2023-04-27T10:10:47.789Z,65.51
2023-04-27T10:11:47.771Z,64.11
2023-04-27T10:12:47.789Z,62.91
2023-04-27T10:13:47.784Z,65.16
2023-04-27T10:14:47.741Z,62.21
2023-04-27T10:15:47.726Z,63.21
2023-04-27T10:16:47.794Z,65.41
2023-04-27T10:17:47.772Z,62.46
2023-04-27T10:18:47.728Z,65.07
2023-04-27T10:19:47.706Z,63.14
2023-04-27T10:20:47.698Z,67.55
2023-04-27T10:21:47.683Z,66.46
2023-04-27T10:22:47.690Z,64.36
2023-04-27T10:23:47.705Z,64.28
2023-04-27T10:24:47.688Z,65.34
2023-04-27T10:25:47.677Z,64.49
2023-04-27T10:26:48.225Z,68.15
2023-04-27T10:27:47.630Z,66.12
2023-04-27T10:28:47.630Z,68.02
2023-04-27T10:29:47.635Z,65.34
2023-04-27T10:30:47.669Z,65.00
2023-04-27T10:31:47.751Z,65.42
2023-04-27T10:32:47.633Z,63.33
2023-04-27T10:33:47.591Z,64.19
2023-04-27T10:34:47.611Z,63.99
2023-04-27T10:35:47.584Z,68.06
2023-04-27T10:36:47.578Z,67.33
2023-04-27T10:37:47.563Z,65.16
2023-04-27T10:38:47.554Z,62.70
2023-04-27T10:39:49.616Z,66.21
2023-04-27T10:40:49.286Z,64.33
2023-04-27T10:41:47.537Z,63.43
2023-04-27T10:42:47.527Z,63.36
2023-04-27T10:43:47.538Z,63.54
2023-04-27T10:44:47.508Z,65.54
2023-04-27T10:45:47.553Z,63.71
2023-04-27T10:46:47.499Z,64.61
2023-04-27T10:47:47.522Z,62.08
2023-04-27T10:48:47.493Z,63.45
2023-04-27T10:49:47.482Z,62.44
2023-04-27T10:50:47.470Z,64.22
2023-04-27T10:51:47.467Z,66.00
2023-04-27T10:52:47.442Z,62.03
2023-04-27T10:53:47.436Z,63.64
2023-04-27T10:54:47.449Z,65.59
2023-04-27T10:55:47.445Z,65.41
2023-04-27T10:56:48.319Z,65.14
2023-04-27T10:57:47.405Z,66.83
2023-04-27T10:58:50.232Z,65.81
2023-04-27T10:59:49.321Z,64.29
2023-04-27T11:00:47.420Z,64.93
2023-04-27T11:01:48.346Z,64.43
2023-04-27T11:02:47.507Z,64.43
2023-04-27T11:03:49.348Z,65.91
2023-04-27T11:04:47.402Z,65.80
2023-04-27T11:05:48.262Z,64.06
2023-04-27T11:06:47.365Z,66.68
2023-04-27T11:07:47.326Z,64.00
2023-04-27T11:08:47.329Z,66.05
2023-04-27T11:09:47.307Z,65.31
2023-04-27T11:10:47.311Z,63.14
2023-04-27T11:11:47.312Z,65.68
2023-04-27T11:12:47.283Z,64.93
2023-04-27T11:13:47.281Z,65.06
2023-04-27T11:14:47.269Z,67.56
2023-04-27T11:15:47.400Z,66.20
2023-04-27T11:16:47.340Z,64.56
2023-04-27T11:17:47.292Z,65.30
2023-04-27T11:18:47.278Z,66.29
2023-04-27T11:19:47.225Z,66.56
2023-04-27T11:20:47.238Z,67.28
2023-04-27T11:21:47.223Z,68.89
2023-04-27T11:22:47.212Z,66.53
2023-04-27T11:23:47.202Z,68.28
2023-04-27T11:24:47.207Z,66.18
2023-04-27T11:25:47.174Z,63.83
2023-04-27T11:26:49.802Z,67.63
2023-04-27T11:27:47.173Z,67.41
2023-04-27T11:28:47.176Z,62.65
2023-04-27T11:29:47.144Z,65.64
2023-04-27T11:30:47.142Z,68.62
2023-04-27T11:31:47.206Z,64.43
2023-04-27T11:32:47.161Z,64.53
2023-04-27T11:33:47.118Z,63.22
2023-04-27T11:34:47.131Z,60.98
2023-04-27T11:35:47.123Z,64.49
2023-04-27T11:36:47.802Z,64.26
2023-04-27T11:37:47.097Z,62.10
2023-04-27T11:38:47.145Z,63.54
2023-04-27T11:39:47.070Z,64.26
2023-04-27T11:40:47.054Z,62.68
2023-04-27T11:41:47.082Z,62.51
2023-04-27T11:42:47.057Z,63.52
2023-04-27T11:43:47.046Z,62.42
2023-04-27T11:44:47.048Z,62.55
2023-04-27T11:45:49.828Z,63.65
2023-04-27T11:46:48.025Z,61.61
2023-04-27T11:47:47.067Z,63.79
2023-04-27T11:48:46.992Z,63.16
2023-04-27T11:49:47.013Z,62.82
2023-04-27T11:50:47.021Z,63.92
2023-04-27T11:51:47.756Z,63.97
2023-04-27T11:52:47.279Z,65.17
2023-04-27T11:53:46.988Z,67.55
2023-04-27T11:54:46.973Z,65.05
2023-04-27T11:55:46.954Z,63.96
2023-04-27T11:56:46.941Z,64.03
2023-04-27T11:57:46.939Z,64.65
2023-04-27T11:58:46.949Z,62.21
2023-04-27T11:59:46.914Z,64.54
2023-04-27T12:00:46.903Z,65.59
2023-04-27T12:01:46.934Z,64.87
2023-04-27T12:02:47.023Z,64.19
2023-04-27T12:03:47.980Z,63.41
2023-04-27T12:04:46.950Z,63.20
2023-04-27T12:05:46.939Z,62.43
2023-04-27T12:06:46.851Z,65.67
2023-04-27T12:07:46.834Z,61.26
2023-04-27T12:08:46.848Z,66.71
2023-04-27T12:09:48.773Z,68.10
2023-04-27T12:10:46.833Z,66.11
2023-04-27T12:11:46.837Z,64.12
2023-04-27T12:12:46.802Z,66.13
2023-04-27T12:13:46.788Z,65.30
2023-04-27T12:14:46.778Z,66.23
2023-04-27T12:15:46.788Z,64.02
2023-04-27T12:16:46.825Z,63.19
2023-04-27T12:17:46.807Z,63.94
2023-04-27T12:18:46.761Z,66.07
2023-04-27T12:19:46.738Z,64.24
2023-04-27T12:20:46.768Z,64.44
2023-04-27T12:21:46.750Z,64.25
2023-04-27T12:22:48.368Z,64.42
2023-04-27T12:23:46.728Z,64.28
2023-04-27T12:24:46.707Z,64.65
2023-04-27T12:25:46.837Z,65.23
2023-04-27T12:26:46.711Z,66.23
2023-04-27T12:27:46.685Z,65.41
2023-04-27T12:28:46.668Z,63.63
2023-04-27T12:29:46.662Z,64.80
2023-04-27T12:30:46.673Z,66.22
2023-04-27T12:31:46.663Z,66.70
2023-04-27T12:32:46.732Z,63.09
2023-04-27T12:33:46.633Z,64.73
2023-04-27T12:34:46.627Z,64.02
2023-04-27T12:35:46.638Z,61.57
2023-04-27T12:36:46.621Z,61.76
2023-04-27T12:37:46.643Z,65.39
2023-04-27T12:38:46.608Z,64.53
2023-04-27T12:39:46.586Z,63.63
2023-04-27T12:40:46.577Z,67.05
2023-04-27T12:41:46.600Z,64.19
2023-04-27T12:42:46.579Z,64.99
2023-04-27T12:43:46.575Z,61.75
2023-04-27T12:44:46.552Z,65.69
2023-04-27T12:45:46.535Z,63.40
2023-04-27T12:46:46.674Z,62.71
2023-04-27T12:48:01.726Z,62.76
2023-04-27T12:48:48.664Z,63.01
2023-04-27T12:49:46.514Z,63.28
2023-04-27T12:50:46.506Z,62.40
2023-04-27T12:51:46.495Z,61.72
2023-04-27T12:52:46.499Z,62.85
2023-04-27T12:53:47.328Z,64.03
2023-04-27T12:54:47.327Z,63.81
2023-04-27T12:55:46.460Z,63.60
2023-04-27T12:56:46.478Z,64.07
2023-04-27T12:57:46.445Z,65.40
2023-04-27T12:58:47.251Z,66.98